Time;durP1;ratioP1;P1;durP2;ratioP2;P2;SDS_P1;SDS_P2;PMS_P1;PMS_P2;Temp;Humidity;BMP_temperature;BMP_pressure;BME280_temperature;BME280_humidity;BME280_pressure;Samples;Min_cycle;Max_cycle;Signal;HPM_P1;HPM_P2
2023/07/16 00:00:30;;;;;;;19.60;5.93;;;17.10;99.90;;;;;;5032167;28;20038;-77
2023/07/16 00:02:56;;;;;;;19.45;6.03;;;17.10;99.90;;;;;;5011425;28;20060;-76
2023/07/16 00:05:22;;;;;;;13.38;4.90;;;17.10;99.90;;;;;;5032145;28;20064;-76
2023/07/16 00:07:48;;;;;;;18.00;5.30;;;17.10;99.90;;;;;;5049286;28;20037;-76
2023/07/16 00:10:13;;;;;;;19.30;5.72;;;17.00;99.90;;;;;;5045481;28;20040;-77
2023/07/16 00:12:40;;;;;;;16.80;5.20;;;17.10;99.90;;;;;;5032771;28;20053;-76
2023/07/16 00:15:06;;;;;;;15.00;4.93;;;17.10;99.90;;;;;;5029552;28;20087;-77
2023/07/16 00:17:33;;;;;;;20.00;5.93;;;17.10;99.90;;;;;;5029317;28;20049;-77
2023/07/16 00:19:59;;;;;;;18.48;5.22;;;17.10;99.90;;;;;;5026645;28;20069;-77
2023/07/16 00:22:25;;;;;;;18.35;5.70;;;17.10;99.90;;;;;;5028729;28;20080;-75
2023/07/16 00:24:50;;;;;;;17.02;5.72;;;17.20;99.90;;;;;;5043454;28;20038;-75
2023/07/16 00:27:16;;;;;;;18.75;5.40;;;17.20;99.90;;;;;;5034304;28;20045;-75
2023/07/16 00:29:42;;;;;;;15.93;5.57;;;17.20;99.90;;;;;;5030357;28;20090;-76
2023/07/16 00:32:07;;;;;;;17.70;5.50;;;17.20;99.90;;;;;;5027215;28;20603;-75
2023/07/16 00:34:33;;;;;;;22.55;5.47;;;17.20;99.90;;;;;;5030509;28;20384;-75
2023/07/16 00:37:01;;;;;;;17.70;6.20;;;17.20;99.90;;;;;;5026353;28;20471;-76
2023/07/16 00:39:28;;;;;;;18.02;5.90;;;17.20;99.90;;;;;;5008291;28;20540;-75
2023/07/16 00:41:54;;;;;;;21.20;5.60;;;17.10;99.90;;;;;;5049137;28;20056;-75
2023/07/16 00:44:20;;;;;;;17.02;5.65;;;17.10;99.90;;;;;;5048595;28;20040;-76
2023/07/16 00:46:45;;;;;;;17.10;5.30;;;17.10;99.90;;;;;;5033129;28;20075;-77
2023/07/16 00:49:11;;;;;;;17.00;5.95;;;17.10;99.90;;;;;;5029488;28;20524;-77
2023/07/16 00:51:37;;;;;;;17.25;5.28;;;17.10;99.90;;;;;;5029712;28;20329;-75
2023/07/16 00:54:04;;;;;;;12.05;4.95;;;17.20;99.90;;;;;;5044673;28;20064;-74
2023/07/16 00:56:29;;;;;;;20.00;5.40;;;17.20;99.90;;;;;;5026479;28;20056;-76
2023/07/16 00:58:55;;;;;;;18.85;5.25;;;17.20;99.90;;;;;;5031807;28;20153;-76
2023/07/16 01:01:21;;;;;;;15.77;5.70;;;17.20;99.90;;;;;;5044087;28;20045;-77
2023/07/16 01:03:46;;;;;;;16.13;6.15;;;17.30;99.90;;;;;;5012269;28;20041;-76
2023/07/16 01:06:25;;;;;;;15.45;5.60;;;17.30;99.90;;;;;;5046622;28;20572;-76
2023/07/16 01:09:06;;;;;;;21.25;5.78;;;17.30;99.90;;;;;;5028603;28;20465;-76
2023/07/16 01:11:35;;;;;;;16.27;6.32;;;17.30;99.90;;;;;;5029402;28;20069;-77
2023/07/16 01:14:01;;;;;;;16.33;6.05;;;17.20;99.90;;;;;;5043640;28;20121;-75
2023/07/16 01:16:27;;;;;;;15.95;5.30;;;17.20;99.90;;;;;;5029555;28;20509;-78
2023/07/16 01:18:53;;;;;;;15.73;5.63;;;17.20;99.90;;;;;;5029361;28;20503;-75
2023/07/16 01:21:21;;;;;;;19.00;6.07;;;17.20;99.90;;;;;;5042125;28;20037;-77
2023/07/16 01:24:11;;;;;;;16.23;5.20;;;17.20;99.90;;;;;;5028952;28;20064;-76
2023/07/16 01:27:08;;;;;;;15.68;5.28;;;17.20;99.90;;;;;;5029077;28;20272;-77
2023/07/16 01:29:47;;;;;;;11.32;4.80;;;17.10;99.90;;;;;;5027900;28;20047;-78
2023/07/16 01:32:14;;;;;;;16.20;5.95;;;17.10;99.90;;;;;;5041525;28;20524;-76
2023/07/16 01:34:41;;;;;;;14.48;5.40;;;17.10;99.90;;;;;;5042033;28;20132;-77
2023/07/16 01:37:07;;;;;;;17.60;5.88;;;17.20;99.90;;;;;;5010882;28;20076;-75
2023/07/16 01:39:32;;;;;;;14.07;5.72;;;17.20;99.90;;;;;;5044184;28;20065;-77
2023/07/16 01:41:59;;;;;;;18.73;5.38;;;17.20;99.90;;;;;;5025293;28;20431;-76
2023/07/16 01:44:24;;;;;;;16.10;5.43;;;17.20;99.90;;;;;;5046852;28;20088;-76
2023/07/16 01:47:28;;;;;;;16.73;5.25;;;17.20;99.90;;;;;;5028904;28;20041;-77
2023/07/16 01:49:54;;;;;;;14.95;4.80;;;17.20;99.90;;;;;;5021457;28;20045;-77
2023/07/16 01:52:19;;;;;;;14.63;4.78;;;17.20;99.90;;;;;;5030417;28;20039;-76
2023/07/16 01:54:45;;;;;;;16.10;4.63;;;17.20;99.90;;;;;;5026914;28;20064;-75
2023/07/16 01:57:11;;;;;;;12.15;4.28;;;17.20;99.90;;;;;;5009585;28;20118;-76
2023/07/16 01:59:36;;;;;;;11.98;4.18;;;17.30;99.90;;;;;;5047021;28;20041;-76
2023/07/16 02:02:03;;;;;;;15.63;4.10;;;17.30;99.90;;;;;;5029001;28;20514;-74
2023/07/16 02:04:28;;;;;;;13.50;4.30;;;17.20;99.90;;;;;;5024229;28;20071;-75
2023/07/16 02:06:54;;;;;;;11.73;4.20;;;17.20;99.90;;;;;;5026819;28;20033;-76
2023/07/16 02:09:21;;;;;;;10.40;3.42;;;17.30;99.90;;;;;;5005833;28;20127;-76
2023/07/16 02:11:46;;;;;;;11.57;4.38;;;17.20;99.90;;;;;;5006773;28;20026;-76
2023/07/16 02:14:13;;;;;;;9.07;2.90;;;17.20;99.90;;;;;;5010305;28;20416;-76
2023/07/16 02:16:39;;;;;;;10.57;3.20;;;17.20;99.90;;;;;;5009910;28;20064;-76
2023/07/16 02:19:05;;;;;;;9.40;3.30;;;17.10;99.90;;;;;;5006548;28;20042;-76
2023/07/16 02:21:31;;;;;;;13.18;3.70;;;17.00;99.90;;;;;;4991504;28;20053;-76
2023/07/16 02:23:57;;;;;;;10.85;3.13;;;16.90;99.90;;;;;;5007820;28;20478;-75
2023/07/16 02:26:22;;;;;;;10.52;3.10;;;16.90;99.90;;;;;;5026012;28;20461;-74
2023/07/16 02:28:48;;;;;;;10.43;4.07;;;16.80;99.90;;;;;;5027115;28;20060;-75
2023/07/16 02:31:13;;;;;;;17.15;5.30;;;16.90;99.90;;;;;;5025417;28;20509;-78
2023/07/16 02:33:39;;;;;;;15.65;5.30;;;16.90;99.90;;;;;;5006962;28;20053;-74
2023/07/16 02:36:06;;;;;;;12.48;5.05;;;17.00;99.90;;;;;;5025227;28;20049;-75
2023/07/16 02:38:32;;;;;;;12.63;4.90;;;17.00;99.90;;;;;;5021051;28;20047;-75
2023/07/16 02:40:57;;;;;;;14.85;5.82;;;17.00;99.90;;;;;;5021739;28;20038;-74
2023/07/16 02:43:23;;;;;;;16.85;5.28;;;17.00;99.90;;;;;;5008069;28;20071;-75
2023/07/16 02:45:49;;;;;;;13.73;5.80;;;17.10;99.90;;;;;;5022643;28;20049;-75
2023/07/16 02:48:14;;;;;;;15.77;5.78;;;17.00;99.90;;;;;;5010987;28;20038;-75
2023/07/16 02:50:40;;;;;;;13.00;5.57;;;17.00;99.90;;;;;;5004361;28;20285;-74
2023/07/16 02:53:08;;;;;;;16.05;5.82;;;17.10;99.90;;;;;;5007439;28;20050;-75
2023/07/16 02:55:35;;;;;;;16.17;6.00;;;17.00;99.90;;;;;;5022537;28;20049;-78
2023/07/16 02:58:04;;;;;;;10.63;5.60;;;17.10;99.90;;;;;;5024482;28;20044;-76
2023/07/16 03:00:33;;;;;;;17.98;6.22;;;17.10;99.90;;;;;;5006244;28;20116;-75
2023/07/16 03:02:59;;;;;;;19.35;6.55;;;17.10;99.90;;;;;;4989715;28;20469;-76
2023/07/16 03:05:27;;;;;;;19.40;6.13;;;17.10;99.90;;;;;;5030197;28;20581;-76
2023/07/16 03:07:53;;;;;;;19.80;6.47;;;17.10;99.90;;;;;;5028736;28;20102;-77
2023/07/16 03:10:20;;;;;;;18.33;5.80;;;17.10;99.90;;;;;;5013820;28;20443;-76
2023/07/16 03:12:46;;;;;;;18.63;6.75;;;17.10;99.90;;;;;;5048031;28;20044;-76
2023/07/16 03:15:11;;;;;;;16.45;6.15;;;17.10;99.90;;;;;;5026453;28;20579;-76
2023/07/16 03:17:37;;;;;;;16.98;6.38;;;17.10;99.90;;;;;;5043264;28;20045;-76
2023/07/16 03:20:05;;;;;;;19.48;6.68;;;17.10;99.90;;;;;;5026121;28;20049;-77
2023/07/16 03:22:31;;;;;;;20.15;6.75;;;17.10;99.90;;;;;;5029618;28;20072;-78
2023/07/16 03:24:57;;;;;;;17.17;7.38;;;17.10;99.90;;;;;;5042685;28;20170;-75
2023/07/16 03:27:23;;;;;;;27.05;7.00;;;17.20;99.90;;;;;;5038151;28;20044;-76
2023/07/16 03:29:48;;;;;;;13.90;7.55;;;17.20;99.90;;;;;;5041789;28;20049;-78
2023/07/16 03:32:14;;;;;;;17.95;6.95;;;17.20;99.90;;;;;;5024328;28;20089;-77
2023/07/16 03:34:40;;;;;;;15.85;6.90;;;17.20;99.90;;;;;;5024493;28;20408;-77
2023/07/16 03:37:06;;;;;;;16.33;6.63;;;17.30;99.90;;;;;;5042636;28;20040;-76
2023/07/16 03:39:31;;;;;;;16.45;6.88;;;17.20;99.90;;;;;;5026497;28;20057;-78
2023/07/16 03:41:57;;;;;;;20.52;7.00;;;17.30;99.90;;;;;;5025737;28;20048;-77
2023/07/16 03:44:23;;;;;;;15.55;5.65;;;17.20;99.90;;;;;;5025698;28;20039;-77
2023/07/16 03:46:52;;;;;;;17.08;6.75;;;17.20;99.90;;;;;;5059283;22;20076;31
2023/07/16 03:49:18;;;;;;;13.60;6.68;;;17.30;99.90;;;;;;4990821;28;19932;-77
2023/07/16 03:51:43;;;;;;;14.45;6.05;;;17.30;99.90;;;;;;5001062;28;20046;-76
2023/07/16 03:54:09;;;;;;;15.48;6.57;;;17.30;99.90;;;;;;5004093;28;20034;-76
2023/07/16 03:56:35;;;;;;;16.73;6.43;;;17.30;99.90;;;;;;5002327;28;20125;-75
2023/07/16 03:59:00;;;;;;;15.27;6.20;;;17.30;99.90;;;;;;5002560;28;20101;-76
2023/07/16 04:01:26;;;;;;;14.85;6.10;;;17.20;99.90;;;;;;5002889;28;20041;-76
2023/07/16 04:03:52;;;;;;;16.42;6.43;;;17.20;99.90;;;;;;5004523;28;20053;-76
2023/07/16 04:06:17;;;;;;;16.05;6.63;;;17.20;99.90;;;;;;4998947;28;20100;-77
2023/07/16 04:08:43;;;;;;;17.25;5.90;;;17.30;99.90;;;;;;5002472;28;20410;-77
2023/07/16 04:11:09;;;;;;;19.42;7.35;;;17.30;99.90;;;;;;5004708;28;20493;-77
2023/07/16 04:13:34;;;;;;;18.83;6.82;;;17.30;99.90;;;;;;5004663;28;20133;-77
2023/07/16 04:16:00;;;;;;;14.48;6.32;;;17.50;99.90;;;;;;5004328;28;20111;-77
2023/07/16 04:18:26;;;;;;;21.88;8.98;;;17.60;99.90;;;;;;5002777;28;20058;-78
2023/07/16 04:20:51;;;;;;;16.35;7.15;;;17.80;99.90;;;;;;5005931;28;20038;-76
2023/07/16 04:23:17;;;;;;;15.85;6.38;;;17.80;99.90;;;;;;5001907;28;20049;-76
2023/07/16 04:25:43;;;;;;;15.50;6.82;;;17.90;99.90;;;;;;5004534;28;20073;-76
2023/07/16 04:28:11;;;;;;;16.00;6.50;;;17.90;99.90;;;;;;5004472;28;20046;-76
2023/07/16 04:30:39;;;;;;;16.33;7.75;;;17.90;99.90;;;;;;5001837;28;20100;-76
2023/07/16 04:33:05;;;;;;;17.85;7.63;;;17.90;99.90;;;;;;5004083;28;20070;-76
2023/07/16 04:35:33;;;;;;;17.55;7.20;;;17.80;99.90;;;;;;5000687;28;20069;-77
2023/07/16 04:37:59;;;;;;;18.08;7.53;;;17.70;99.90;;;;;;5002739;28;20050;-75
2023/07/16 04:40:24;;;;;;;17.00;6.63;;;17.60;99.90;;;;;;5003355;28;20042;-73
2023/07/16 04:42:50;;;;;;;14.88;6.13;;;17.60;99.90;;;;;;5005286;28;20056;-76
2023/07/16 04:45:16;;;;;;;19.23;6.97;;;17.50;99.90;;;;;;5005053;28;20042;-75
2023/07/16 04:47:42;;;;;;;16.50;5.93;;;17.50;99.90;;;;;;5019730;28;20075;-73
2023/07/16 04:50:08;;;;;;;17.42;6.85;;;17.60;99.90;;;;;;5028823;28;20128;-75
2023/07/16 04:52:33;;;;;;;15.18;6.15;;;17.60;99.90;;;;;;5028676;28;20095;-73
2023/07/16 04:54:59;;;;;;;17.50;6.50;;;17.60;99.90;;;;;;5027953;28;20508;-75
2023/07/16 04:57:25;;;;;;;15.52;5.90;;;17.70;99.90;;;;;;5023242;28;20073;-74
2023/07/16 04:59:51;;;;;;;15.82;7.18;;;17.80;99.90;;;;;;5027662;28;20056;-74
2023/07/16 05:02:17;;;;;;;19.67;6.80;;;17.90;99.90;;;;;;5026475;28;20455;-75
2023/07/16 05:04:44;;;;;;;19.08;7.35;;;17.90;99.90;;;;;;5040998;28;20045;-76
2023/07/16 05:07:10;;;;;;;18.38;7.43;;;18.00;99.90;;;;;;5028939;28;20475;-76
2023/07/16 05:09:36;;;;;;;17.88;6.85;;;18.00;99.90;;;;;;5041404;28;20500;-75
2023/07/16 05:12:02;;;;;;;16.83;7.00;;;18.00;99.90;;;;;;5025919;28;20046;-72
2023/07/16 05:14:28;;;;;;;17.38;6.28;;;18.00;99.90;;;;;;5026724;28;20776;-76
2023/07/16 05:16:55;;;;;;;18.45;6.88;;;18.00;99.90;;;;;;5024157;28;20041;-75
2023/07/16 05:19:21;;;;;;;19.13;7.00;;;17.80;99.90;;;;;;5024639;28;21076;-76
2023/07/16 05:21:46;;;;;;;15.32;7.55;;;17.50;99.90;;;;;;5024536;28;20052;-76
2023/07/16 05:24:12;;;;;;;14.38;7.28;;;17.40;99.90;;;;;;5029655;28;20494;-76
2023/07/16 05:26:38;;;;;;;14.45;7.10;;;17.20;99.90;;;;;;5027039;28;20129;-77
2023/07/16 05:29:04;;;;;;;17.10;6.72;;;17.10;99.90;;;;;;5010928;28;20049;-75
2023/07/16 05:31:30;;;;;;;17.05;6.22;;;17.10;99.90;;;;;;5025604;28;20104;-75
2023/07/16 05:33:55;;;;;;;16.60;6.78;;;17.20;99.90;;;;;;4997472;28;20058;-76
2023/07/16 05:36:21;;;;;;;17.42;6.60;;;17.30;99.90;;;;;;5026333;28;20057;-75
2023/07/16 05:38:47;;;;;;;17.30;6.38;;;17.30;99.90;;;;;;5025887;28;20049;-76
2023/07/16 05:41:12;;;;;;;17.42;6.25;;;17.40;99.90;;;;;;5024090;28;20045;-76
2023/07/16 05:43:38;;;;;;;10.10;5.55;;;17.60;99.90;;;;;;5026851;28;20072;-75
2023/07/16 05:46:06;;;;;;;13.98;5.40;;;17.80;99.90;;;;;;5025267;28;20045;-76
2023/07/16 05:48:32;;;;;;;15.43;5.88;;;18.00;99.90;;;;;;5027804;28;20059;-74
2023/07/16 05:50:57;;;;;;;14.63;5.82;;;17.90;99.90;;;;;;5034757;28;20345;-75
2023/07/16 05:53:23;;;;;;;18.15;6.57;;;17.90;99.90;;;;;;4996861;28;20052;-77
2023/07/16 05:55:52;;;;;;;12.55;5.57;;;17.80;99.90;;;;;;5027924;28;20111;-77
2023/07/16 05:58:17;;;;;;;17.75;6.15;;;17.80;99.90;;;;;;5011590;28;20546;-77
2023/07/16 06:00:43;;;;;;;13.15;5.45;;;17.90;99.90;;;;;;5023123;28;20049;-76
2023/07/16 06:03:09;;;;;;;11.20;5.28;;;18.00;99.90;;;;;;5029429;28;20510;-78
2023/07/16 06:05:36;;;;;;;13.15;5.50;;;18.00;99.90;;;;;;5023568;28;20041;-75
2023/07/16 06:08:02;;;;;;;15.93;6.03;;;18.00;99.90;;;;;;5013235;28;20081;-78
2023/07/16 06:10:28;;;;;;;15.65;5.47;;;18.10;99.90;;;;;;4993010;28;20184;-75
2023/07/16 06:12:53;;;;;;;14.80;6.45;;;18.30;99.90;;;;;;5050764;28;20048;-77
2023/07/16 06:15:19;;;;;;;18.48;6.90;;;18.50;99.90;;;;;;5029842;28;20044;-76
2023/07/16 06:17:45;;;;;;;14.15;6.35;;;18.70;99.90;;;;;;5052833;28;20045;-75
2023/07/16 06:20:11;;;;;;;15.82;5.88;;;18.70;99.90;;;;;;5034049;28;20048;-77
2023/07/16 06:22:37;;;;;;;18.17;5.95;;;18.80;99.90;;;;;;5003584;28;20538;-75
2023/07/16 06:25:04;;;;;;;12.77;5.53;;;18.90;99.90;;;;;;5030786;28;20053;-75
2023/07/16 06:27:30;;;;;;;12.45;6.18;;;18.80;99.90;;;;;;5014088;28;20056;-76
2023/07/16 06:29:55;;;;;;;12.70;5.05;;;18.70;99.90;;;;;;5011161;28;20294;-73
2023/07/16 06:32:21;;;;;;;17.88;6.93;;;18.60;99.90;;;;;;5017610;28;20492;-73
2023/07/16 06:34:47;;;;;;;14.50;5.95;;;18.40;99.90;;;;;;5005710;28;20504;-74
2023/07/16 06:37:14;;;;;;;17.40;6.30;;;18.40;99.90;;;;;;4985967;28;20049;-74
2023/07/16 06:39:39;;;;;;;12.35;5.60;;;18.50;99.90;;;;;;5027250;28;20045;-74
2023/07/16 06:42:05;;;;;;;18.17;6.90;;;18.70;99.90;;;;;;5003197;28;20061;-74
2023/07/16 06:44:31;;;;;;;11.88;5.18;;;18.90;99.90;;;;;;5002581;28;20056;-73
2023/07/16 06:46:57;;;;;;;15.00;6.80;;;19.00;99.90;;;;;;5022489;28;20041;-74
2023/07/16 06:49:23;;;;;;;12.20;5.55;;;18.90;99.90;;;;;;4999289;28;20384;-73
2023/07/16 06:51:49;;;;;;;18.05;6.50;;;18.80;99.90;;;;;;5038853;28;20037;-73
2023/07/16 06:54:14;;;;;;;11.82;5.75;;;18.60;99.90;;;;;;5019863;28;20265;-73
2023/07/16 06:56:40;;;;;;;15.80;6.15;;;18.40;99.90;;;;;;5021401;28;20041;-73
2023/07/16 06:59:06;;;;;;;18.27;6.50;;;18.20;99.90;;;;;;5015312;28;20044;-73
2023/07/16 07:01:32;;;;;;;14.55;5.88;;;18.10;99.90;;;;;;5020775;28;20543;-73
2023/07/16 07:03:57;;;;;;;18.50;6.45;;;18.00;99.90;;;;;;5041882;28;20087;-72
2023/07/16 07:06:23;;;;;;;15.27;6.38;;;18.00;99.90;;;;;;5018632;28;20037;-72
2023/07/16 07:08:49;;;;;;;15.65;6.00;;;17.90;99.90;;;;;;5022912;28;20133;-72
2023/07/16 07:11:14;;;;;;;16.25;6.50;;;17.90;99.90;;;;;;5017102;28;20071;-73
2023/07/16 07:13:40;;;;;;;15.88;6.35;;;17.80;99.90;;;;;;5040724;28;20041;-77
2023/07/16 07:16:06;;;;;;;17.98;7.07;;;17.80;99.90;;;;;;5038997;28;20049;-75
2023/07/16 07:18:31;;;;;;;15.27;6.25;;;17.80;99.90;;;;;;5035074;28;20576;-75
2023/07/16 07:20:57;;;;;;;17.50;6.30;;;17.70;99.90;;;;;;5018905;28;20116;-75
2023/07/16 07:23:23;;;;;;;17.00;6.35;;;17.70;99.90;;;;;;5039002;28;20051;-76
2023/07/16 07:25:51;;;;;;;19.05;6.63;;;17.70;99.90;;;;;;5020654;28;20041;-74
2023/07/16 07:28:17;;;;;;;16.83;6.63;;;17.70;99.90;;;;;;5023438;28;20044;-74
2023/07/16 07:30:43;;;;;;;14.10;6.00;;;17.70;99.90;;;;;;5037686;28;20140;-74
2023/07/16 07:33:09;;;;;;;12.82;6.35;;;17.70;99.90;;;;;;5019864;28;20478;-75
2023/07/16 07:35:34;;;;;;;14.18;6.22;;;17.70;99.90;;;;;;5034753;28;20526;-75
2023/07/16 07:38:00;;;;;;;16.67;6.50;;;17.80;99.90;;;;;;5016122;28;20053;-75
2023/07/16 07:40:26;;;;;;;12.57;6.07;;;18.00;99.90;;;;;;5038404;28;20052;-75
2023/07/16 07:42:52;;;;;;;15.68;5.50;;;18.30;99.90;;;;;;5020087;28;20057;-75
2023/07/16 07:45:18;;;;;;;13.85;5.63;;;18.30;99.90;;;;;;5003413;28;21862;-75
2023/07/16 07:47:43;;;;;;;15.48;5.45;;;18.40;99.90;;;;;;5020475;28;20486;-73
2023/07/16 07:50:10;;;;;;;14.18;5.03;;;18.70;99.90;;;;;;5020004;28;20051;-73
2023/07/16 07:52:36;;;;;;;13.80;5.68;;;18.90;99.90;;;;;;5022060;28;20037;-74
2023/07/16 07:55:02;;;;;;;14.80;5.47;;;19.20;99.90;;;;;;5020532;28;20110;-75
2023/07/16 07:57:27;;;;;;;13.27;4.70;;;19.60;99.90;;;;;;5023318;28;20044;-75
2023/07/16 07:59:57;;;;;;;16.45;5.25;;;19.70;99.90;;;;;;5034796;28;20045;-75
2023/07/16 08:02:24;;;;;;;11.88;5.65;;;19.70;99.90;;;;;;5033892;28;20506;-75
2023/07/16 08:04:51;;;;;;;15.25;5.95;;;19.70;99.90;;;;;;4998792;28;20042;-76
2023/07/16 08:07:17;;;;;;;12.98;5.80;;;19.70;99.90;;;;;;5033424;28;20049;-75
2023/07/16 08:09:43;;;;;;;13.07;5.35;;;19.70;99.90;;;;;;5034605;28;20172;-75
2023/07/16 08:12:09;;;;;;;14.07;5.97;;;19.70;99.90;;;;;;5035459;28;20479;-76
2023/07/16 08:14:34;;;;;;;14.07;5.93;;;19.70;99.90;;;;;;5016725;28;20040;-77
2023/07/16 08:17:00;;;;;;;12.57;5.85;;;19.60;99.90;;;;;;5020261;28;20442;-76
2023/07/16 08:19:26;;;;;;;14.00;6.65;;;19.60;99.90;;;;;;5040868;28;20045;-75
2023/07/16 08:21:51;;;;;;;10.98;5.40;;;19.70;99.90;;;;;;5022386;28;20419;-75
2023/07/16 08:24:17;;;;;;;15.68;5.93;;;19.90;99.90;;;;;;5019195;28;20032;-75
2023/07/16 08:26:43;;;;;;;17.63;6.30;;;20.10;99.90;;;;;;5021667;28;20045;-74
2023/07/16 08:29:08;;;;;;;15.57;6.28;;;20.10;99.90;;;;;;5020116;28;20491;-74
2023/07/16 08:31:34;;;;;;;15.02;6.38;;;20.10;99.90;;;;;;5019569;28;20174;-75
2023/07/16 08:34:00;;;;;;;12.15;5.43;;;20.40;99.90;;;;;;4999984;28;20052;-76
2023/07/16 08:36:25;;;;;;;14.13;5.18;;;20.60;99.90;;;;;;5004467;28;20143;-76
2023/07/16 08:38:51;;;;;;;13.75;5.00;;;20.80;99.90;;;;;;5026128;28;20037;-76
2023/07/16 08:41:17;;;;;;;12.25;4.60;;;20.60;99.90;;;;;;5026272;28;20052;-78
2023/07/16 08:43:46;;;;;;;13.90;6.07;;;20.70;99.90;;;;;;5036905;28;20056;-75
2023/07/16 08:46:13;;;;;;;17.20;5.18;;;20.70;99.90;;;;;;5040560;28;20045;-76
2023/07/16 08:48:40;;;;;;;17.40;4.43;;;20.80;99.90;;;;;;5029498;28;20052;-76
2023/07/16 08:51:07;;;;;;;16.50;4.88;;;20.80;99.90;;;;;;5022081;28;20092;-76
2023/07/16 08:53:33;;;;;;;15.70;5.50;;;21.00;99.90;;;;;;5024243;28;21564;-75
2023/07/16 08:55:58;;;;;;;17.38;4.72;;;20.90;99.90;;;;;;5025265;28;20037;-76
2023/07/16 08:58:24;;;;;;;13.80;4.65;;;20.70;99.90;;;;;;5023139;28;20044;-77
2023/07/16 09:00:51;;;;;;;17.70;5.10;;;20.50;99.90;;;;;;5003603;28;20048;-78
2023/07/16 09:03:17;;;;;;;15.93;4.85;;;20.30;99.90;;;;;;5019487;28;20168;-77
2023/07/16 09:05:46;;;;;;;13.30;4.88;;;20.20;99.90;;;;;;5000990;28;20037;-77
2023/07/16 09:08:13;;;;;;;17.33;5.25;;;20.20;99.90;;;;;;5024882;28;20092;-78
2023/07/16 09:10:43;;;;;;;15.10;5.88;;;20.30;99.90;;;;;;5017726;28;20049;-77
2023/07/16 09:13:09;;;;;;;13.85;5.93;;;20.20;99.90;;;;;;5000695;28;20041;-77
2023/07/16 09:15:35;;;;;;;14.90;5.47;;;20.10;99.90;;;;;;5027148;28;20067;-79
2023/07/16 09:18:01;;;;;;;15.95;5.55;;;19.90;99.90;;;;;;5026100;28;20097;-75
2023/07/16 09:20:30;;;;;;;15.40;5.22;;;19.70;99.90;;;;;;4990443;28;20041;-80
2023/07/16 09:22:57;;;;;;;17.63;6.35;;;19.70;99.90;;;;;;5019350;28;20041;-77
2023/07/16 09:25:27;;;;;;;14.95;5.70;;;19.70;99.90;;;;;;5001540;28;20955;-76
2023/07/16 09:27:54;;;;;;;16.70;5.32;;;20.00;99.90;;;;;;5008083;28;20056;-76
2023/07/16 09:30:20;;;;;;;11.30;5.30;;;20.50;99.90;;;;;;5005670;28;20052;-75
2023/07/16 09:32:47;;;;;;;15.43;5.15;;;20.90;99.90;;;;;;5017062;28;20037;-74
2023/07/16 09:35:17;;;;;;;12.90;5.15;;;21.10;99.90;;;;;;5002631;28;20046;-74
2023/07/16 09:37:43;;;;;;;16.45;5.63;;;21.30;99.90;;;;;;5010387;28;20100;-75
2023/07/16 09:40:12;;;;;;;13.30;5.75;;;21.40;99.90;;;;;;4996788;28;20049;-74
2023/07/16 09:42:40;;;;;;;17.17;5.50;;;21.70;99.90;;;;;;5019452;28;20048;-77
2023/07/16 09:45:08;;;;;;;13.10;4.57;;;22.00;99.90;;;;;;4989755;28;20053;-77
2023/07/16 09:47:35;;;;;;;12.15;5.22;;;22.00;99.90;;;;;;5026899;28;20041;-77
2023/07/16 09:50:02;;;;;;;17.08;6.25;;;22.00;99.90;;;;;;5028067;28;20510;-77
2023/07/16 09:52:27;;;;;;;15.43;4.85;;;22.00;99.90;;;;;;5044685;28;20061;-76
2023/07/16 09:54:56;;;;;;;11.77;5.07;;;21.80;99.90;;;;;;5026024;28;20138;-76
2023/07/16 09:57:24;;;;;;;10.45;3.90;;;21.70;99.90;;;;;;5045467;28;20071;-76
2023/07/16 09:59:52;;;;;;;13.23;5.07;;;21.70;99.90;;;;;;5043312;28;20073;-77
2023/07/16 10:02:18;;;;;;;12.98;4.70;;;21.40;99.90;;;;;;5025324;28;20083;-77
2023/07/16 10:04:44;;;;;;;11.82;4.38;;;21.40;99.90;;;;;;5043960;28;20044;-76
2023/07/16 10:07:24;;;;;;;14.48;4.30;;;21.30;99.90;;;;;;5046787;28;20127;-76
2023/07/16 10:09:57;;;;;;;14.57;5.30;;;20.80;99.90;;;;;;5044313;28;20037;-76
2023/07/16 10:12:25;;;;;;;17.27;5.03;;;20.60;99.90;;;;;;5027045;28;20412;-75
2023/07/16 10:14:52;;;;;;;16.25;5.78;;;20.50;99.90;;;;;;5024127;28;20064;-73
2023/07/16 10:17:23;;;;;;;16.50;5.25;;;20.70;99.90;;;;;;5014786;28;20067;-77
2023/07/16 10:20:12;;;;;;;15.70;4.63;;;20.90;99.90;;;;;;5023132;28;20053;-78
2023/07/16 10:22:51;;;;;;;16.17;4.85;;;21.10;99.90;;;;;;5024982;28;20055;-77
2023/07/16 10:25:20;;;;;;;13.32;5.43;;;21.20;99.90;;;;;;5023336;28;20040;-77
2023/07/16 10:27:47;;;;;;;13.98;3.83;;;21.20;99.90;;;;;;5024261;28;20040;-77
2023/07/16 10:30:13;;;;;;;17.00;5.63;;;21.00;99.90;;;;;;5023501;28;20064;-75
2023/07/16 10:32:39;;;;;;;17.83;5.38;;;20.70;99.90;;;;;;5027728;28;20048;-75
2023/07/16 10:35:06;;;;;;;13.25;5.32;;;20.40;99.90;;;;;;5046301;28;20040;-75
2023/07/16 10:37:32;;;;;;;13.75;4.85;;;20.20;99.90;;;;;;5041179;28;20091;-77
2023/07/16 10:39:59;;;;;;;14.43;4.90;;;20.30;99.90;;;;;;5019604;28;20799;-75
2023/07/16 10:42:27;;;;;;;17.40;5.45;;;20.40;99.90;;;;;;5019487;28;20057;-77
2023/07/16 10:44:55;;;;;;;18.95;5.65;;;20.30;99.90;;;;;;5046196;28;20457;-76
2023/07/16 10:47:37;;;;;;;15.40;4.93;;;20.50;99.90;;;;;;5041542;28;20076;-76
2023/07/16 10:50:05;;;;;;;14.95;3.78;;;20.60;99.90;;;;;;5023011;28;20152;-75
2023/07/16 10:52:31;;;;;;;13.27;4.70;;;20.60;99.90;;;;;;5008388;28;20509;-76
2023/07/16 10:55:00;;;;;;;9.63;3.63;;;20.40;99.90;;;;;;5028925;28;20084;-77
2023/07/16 10:57:26;;;;;;;14.15;4.68;;;20.20;99.90;;;;;;5022428;28;20037;-78
2023/07/16 10:59:53;;;;;;;15.55;4.70;;;20.10;99.90;;;;;;4993321;28;20053;-70
2023/07/16 11:02:20;;;;;;;17.33;4.65;;;20.30;99.90;;;;;;5019441;28;20132;-70
2023/07/16 11:04:47;;;;;;;10.45;4.30;;;20.30;99.90;;;;;;4988098;28;20045;-70
2023/07/16 11:07:14;;;;;;;15.40;4.60;;;20.40;99.90;;;;;;5005333;28;20098;-71
2023/07/16 11:09:48;;;;;;;15.57;4.43;;;20.50;99.90;;;;;;5003822;28;20076;-71
2023/07/16 11:12:32;;;;;;;10.93;3.83;;;20.50;99.90;;;;;;5020755;28;20093;-71
2023/07/16 11:14:57;;;;;;;11.15;3.83;;;20.70;99.90;;;;;;5003936;28;20038;-71
2023/07/16 11:17:27;;;;;;;13.32;4.45;;;20.70;99.90;;;;;;5011761;28;20041;-72
2023/07/16 11:19:54;;;;;;;18.27;4.57;;;20.60;99.90;;;;;;5021570;28;20037;-71
2023/07/16 11:22:26;;;;;;;13.38;4.55;;;20.50;99.90;;;;;;4999960;28;20048;-70
2023/07/16 11:24:52;;;;;;;20.25;4.95;;;20.40;99.90;;;;;;4989554;28;20049;-69
2023/07/16 11:27:29;;;;;;;13.95;4.93;;;20.60;99.90;;;;;;4997018;28;20048;-71
2023/07/16 11:29:59;;;;;;;14.32;3.35;;;20.90;99.90;;;;;;5020301;28;20056;-70
2023/07/16 11:32:31;;;;;;;13.60;3.22;;;21.10;99.90;;;;;;5000122;28;20544;-72
2023/07/16 11:34:58;;;;;;;13.77;3.55;;;21.20;99.90;;;;;;5013869;28;20100;-70
2023/07/16 11:37:28;;;;;;;13.25;4.28;;;21.10;99.90;;;;;;5000434;28;20052;-70
2023/07/16 11:39:58;;;;;;;13.52;3.33;;;21.00;99.90;;;;;;5015940;28;20128;-71
2023/07/16 11:42:35;;;;;;;15.07;3.75;;;21.00;99.90;;;;;;5025771;28;20247;-71
2023/07/16 11:45:02;;;;;;;21.17;3.75;;;20.90;99.90;;;;;;5018732;28;20068;-74
2023/07/16 11:47:28;;;;;;;13.82;3.53;;;20.70;99.90;;;;;;5022181;28;20049;-73
2023/07/16 11:49:55;;;;;;;12.80;3.72;;;20.60;99.90;;;;;;5037823;28;20049;-74
2023/07/16 11:52:30;;;;;;;15.15;4.03;;;20.70;99.90;;;;;;5037642;28;20247;-70
2023/07/16 11:55:03;;;;;;;15.55;3.25;;;21.00;99.90;;;;;;5007700;28;20045;-70
2023/07/16 11:57:29;;;;;;;12.82;3.85;;;21.10;99.90;;;;;;5026395;28;20133;-72
2023/07/16 11:59:55;;;;;;;15.43;3.88;;;21.30;99.90;;;;;;5045309;28;20048;-73
2023/07/16 12:02:21;;;;;;;12.82;3.75;;;21.30;99.90;;;;;;5004559;28;20048;-73
2023/07/16 12:04:47;;;;;;;17.58;4.35;;;21.30;99.90;;;;;;5023720;28;20500;-73
2023/07/16 12:07:13;;;;;;;13.15;4.57;;;21.20;99.90;;;;;;5049448;28;20052;-72
2023/07/16 12:09:38;;;;;;;18.33;5.00;;;21.00;99.90;;;;;;5031396;28;20052;-73
2023/07/16 12:12:05;;;;;;;15.55;4.53;;;20.80;99.90;;;;;;5061848;28;20074;-72
2023/07/16 12:14:31;;;;;;;16.48;4.78;;;20.60;99.90;;;;;;5040583;28;20045;-73
2023/07/16 12:16:57;;;;;;;22.90;5.50;;;20.40;99.90;;;;;;5022098;28;20053;-72
2023/07/16 12:19:22;;;;;;;17.10;4.97;;;20.10;99.90;;;;;;5022741;28;20052;-71
2023/07/16 12:21:48;;;;;;;18.23;4.75;;;19.70;99.90;;;;;;5043298;28;20469;-70
2023/07/16 12:24:14;;;;;;;21.65;4.82;;;19.30;99.90;;;;;;5026397;28;20034;-72
2023/07/16 12:26:40;;;;;;;18.02;5.60;;;18.80;99.90;;;;;;5042496;28;20069;-74
2023/07/16 12:29:06;;;;;;;17.45;5.00;;;18.60;99.90;;;;;;5026591;28;20057;-73
2023/07/16 12:31:31;;;;;;;21.98;5.30;;;18.70;99.90;;;;;;5045844;28;20051;-72
2023/07/16 12:33:58;;;;;;;21.98;5.85;;;18.70;99.90;;;;;;5022801;28;20432;-74
2023/07/16 12:36:24;;;;;;;20.40;5.72;;;18.70;99.90;;;;;;5037565;28;20075;-73